Time;durP1;ratioP1;P1;durP2;ratioP2;P2;SDS_P1;SDS_P2;PMS_P1;PMS_P2;Temp;Humidity;BMP_temperature;BMP_pressure;BME280_temperature;BME280_humidity;BME280_pressure;Samples;Min_cycle;Max_cycle;Signal;HPM_P1;HPM_P2
2021/08/04 00:01:11;;;;;;;3.58;2.33;;;18.40;99.90;;;;;;5056962;28;20379;-74
2021/08/04 00:03:37;;;;;;;3.13;1.95;;;18.40;99.90;;;;;;5056057;28;20506;-74
2021/08/04 00:06:02;;;;;;;3.20;1.98;;;18.50;99.90;;;;;;5064605;28;20151;-74
2021/08/04 00:08:28;;;;;;;3.03;2.20;;;18.40;99.90;;;;;;5056453;28;20135;-74
2021/08/04 00:10:54;;;;;;;3.53;2.17;;;18.40;99.90;;;;;;5061429;28;20025;-74
2021/08/04 00:13:19;;;;;;;4.32;2.35;;;18.40;99.90;;;;;;5067193;28;20483;-74
2021/08/04 00:15:45;;;;;;;2.80;1.95;;;18.40;99.90;;;;;;5060327;28;20535;-74
2021/08/04 00:18:13;;;;;;;3.30;2.10;;;18.40;99.90;;;;;;5062534;28;20025;-74
2021/08/04 00:20:38;;;;;;;3.95;2.58;;;18.30;99.90;;;;;;5062141;28;20028;-74
2021/08/04 00:23:04;;;;;;;2.45;2.17;;;18.30;99.90;;;;;;5061382;28;20070;-73
2021/08/04 00:25:29;;;;;;;4.72;2.25;;;18.30;99.90;;;;;;5065390;28;20025;-73
2021/08/04 00:27:55;;;;;;;5.43;2.72;;;18.30;99.90;;;;;;5064923;28;20079;-74
2021/08/04 00:30:29;;;;;;;2.85;2.53;;;18.30;99.90;;;;;;5060297;28;20115;-74
2021/08/04 00:32:58;;;;;;;3.28;2.55;;;18.30;99.90;;;;;;5061163;28;20035;-74
2021/08/04 00:35:24;;;;;;;7.00;2.40;;;18.30;99.90;;;;;;5061958;28;20025;-74
2021/08/04 00:37:50;;;;;;;2.90;2.28;;;18.30;99.90;;;;;;5061887;28;20495;-74
2021/08/04 00:40:15;;;;;;;3.10;2.50;;;18.20;99.90;;;;;;5070105;28;20025;-75
2021/08/04 00:42:41;;;;;;;3.40;2.30;;;18.20;99.90;;;;;;5065378;28;20028;-74
2021/08/04 00:45:08;;;;;;;2.92;2.28;;;18.20;99.90;;;;;;5063356;28;20009;-74
2021/08/04 00:47:45;;;;;;;4.65;2.25;;;18.20;99.90;;;;;;5047853;28;20045;-74
2021/08/04 00:50:11;;;;;;;2.83;2.20;;;18.20;99.90;;;;;;5052386;28;20479;-74
2021/08/04 00:52:38;;;;;;;7.10;2.33;;;18.20;99.90;;;;;;5071552;28;20032;-74
2021/08/04 00:55:05;;;;;;;2.95;2.58;;;18.20;99.90;;;;;;5058085;28;20458;-74
2021/08/04 00:57:31;;;;;;;2.20;2.00;;;18.20;99.90;;;;;;5070036;28;20469;-74
2021/08/04 00:59:56;;;;;;;2.80;2.17;;;18.20;99.90;;;;;;5070357;28;20151;-74
2021/08/04 01:02:30;;;;;;;3.55;2.60;;;18.20;99.90;;;;;;5061026;28;20044;-74
2021/08/04 01:05:02;;;;;;;3.88;2.55;;;18.10;99.90;;;;;;5060378;28;20028;-74
2021/08/04 01:07:34;;;;;;;3.20;2.20;;;18.10;99.90;;;;;;5070339;28;20052;-74
2021/08/04 01:10:28;;;;;;;3.50;2.40;;;18.10;99.90;;;;;;5062153;28;20033;-75
2021/08/04 01:13:11;;;;;;;3.15;2.50;;;18.10;99.90;;;;;;5060673;28;20057;-74
2021/08/04 01:15:45;;;;;;;3.47;2.28;;;18.10;99.90;;;;;;5065018;28;20024;-74
2021/08/04 01:18:18;;;;;;;3.65;2.65;;;18.00;99.90;;;;;;5064354;28;20025;-74
2021/08/04 01:20:44;;;;;;;6.05;2.60;;;18.00;99.90;;;;;;5058459;28;20052;-74
2021/08/04 01:23:23;;;;;;;3.63;2.50;;;18.00;99.90;;;;;;5065434;28;20486;-74
2021/08/04 01:25:57;;;;;;;5.85;2.70;;;18.00;99.90;;;;;;5063946;28;20556;-74
2021/08/04 01:28:39;;;;;;;4.00;2.33;;;18.00;99.90;;;;;;5066750;28;20068;-74
2021/08/04 01:31:06;;;;;;;;;;;18.00;99.90;;;;;;5059766;28;20036;-74
2021/08/04 01:33:34;;;;;;;3.40;2.60;;;17.90;99.90;;;;;;5063827;28;19915;-74
2021/08/04 01:36:00;;;;;;;3.42;2.67;;;17.90;99.90;;;;;;5068952;28;20024;-74
2021/08/04 01:38:27;;;;;;;4.90;2.63;;;17.90;99.90;;;;;;5060564;28;20036;-74
2021/08/04 01:40:54;;;;;;;3.38;2.90;;;17.80;99.90;;;;;;5066367;28;20033;-74
2021/08/04 01:43:22;;;;;;;4.55;2.78;;;17.80;99.90;;;;;;5057481;28;20450;-74
2021/08/04 01:45:48;;;;;;;7.30;2.97;;;17.80;99.90;;;;;;5059741;28;20028;-74
2021/08/04 01:48:14;;;;;;;4.10;2.53;;;17.80;99.90;;;;;;5056171;28;20934;-74
2021/08/04 01:50:41;;;;;;;3.63;2.85;;;17.80;99.90;;;;;;5059793;28;20056;-74
2021/08/04 01:53:08;;;;;;;2.75;2.22;;;17.80;99.90;;;;;;5063421;28;20037;-74
2021/08/04 01:55:37;;;;;;;3.50;2.75;;;17.80;99.90;;;;;;5063344;28;20085;-74
2021/08/04 01:58:02;;;;;;;10.45;2.88;;;17.70;99.90;;;;;;5061789;28;20032;-74
2021/08/04 02:00:28;;;;;;;4.25;2.65;;;17.70;99.90;;;;;;5058387;28;20033;-74
2021/08/04 02:02:53;;;;;;;3.30;2.42;;;17.70;99.90;;;;;;5064104;28;20021;-74
2021/08/04 02:05:19;;;;;;;4.75;2.75;;;17.70;99.90;;;;;;5061101;28;20027;-74
2021/08/04 02:08:15;;;;;;;5.82;2.92;;;17.70;99.90;;;;;;5059958;28;20057;-74
2021/08/04 02:10:47;;;;;;;3.22;2.85;;;17.70;99.90;;;;;;5060287;28;20495;-74
2021/08/04 02:13:45;;;;;;;2.88;2.45;;;17.70;99.90;;;;;;5067792;28;20509;-74
2021/08/04 02:16:23;;;;;;;3.28;2.58;;;17.70;99.90;;;;;;5053044;28;20056;-74
2021/08/04 02:18:56;;;;;;;6.53;2.65;;;17.70;99.90;;;;;;5063119;28;20025;-74
2021/08/04 02:21:24;;;;;;;3.45;2.80;;;17.70;99.90;;;;;;5064417;28;20055;-74
2021/08/04 02:23:51;;;;;;;4.10;2.60;;;17.70;99.90;;;;;;5069172;28;20039;-74
2021/08/04 02:26:20;;;;;;;4.07;2.70;;;17.70;99.90;;;;;;5064978;28;20106;-75
2021/08/04 02:28:50;;;;;;;3.25;2.70;;;17.60;99.90;;;;;;5061130;28;20513;-74
2021/08/04 02:31:16;;;;;;;3.97;2.67;;;17.60;99.90;;;;;;5063421;28;20197;-74
2021/08/04 02:33:43;;;;;;;2.63;2.42;;;17.60;99.90;;;;;;5066851;28;20071;-74
2021/08/04 02:36:09;;;;;;;2.67;2.40;;;17.60;99.90;;;;;;5062418;28;20035;-74
2021/08/04 02:38:35;;;;;;;5.78;2.75;;;17.60;99.90;;;;;;5065826;28;20036;-74
2021/08/04 02:41:00;;;;;;;7.00;2.72;;;17.60;99.90;;;;;;5067194;28;20024;-74
2021/08/04 02:43:26;;;;;;;5.90;2.20;;;17.60;99.90;;;;;;5065608;28;20111;-74
2021/08/04 02:45:52;;;;;;;3.33;2.60;;;17.50;99.90;;;;;;5052632;28;20025;-74
2021/08/04 02:48:19;;;;;;;4.00;2.58;;;17.60;99.90;;;;;;5064450;28;20029;-74
2021/08/04 02:50:47;;;;;;;3.00;2.67;;;17.50;99.90;;;;;;5062800;28;20081;-74
2021/08/04 02:53:17;;;;;;;4.03;2.83;;;17.50;99.90;;;;;;5059164;28;20025;-74
2021/08/04 02:55:43;;;;;;;3.92;2.65;;;17.50;99.90;;;;;;5052453;28;20032;-75
2021/08/04 02:58:12;;;;;;;4.45;2.50;;;17.50;99.90;;;;;;5058729;28;20506;-75
2021/08/04 03:00:38;;;;;;;3.78;2.53;;;17.50;99.90;;;;;;5063560;28;20196;-75
2021/08/04 03:03:04;;;;;;;3.45;2.80;;;17.50;99.90;;;;;;5057058;28;20039;-74
2021/08/04 03:05:29;;;;;;;4.70;2.90;;;17.50;99.90;;;;;;5055196;28;20095;-74
2021/08/04 03:07:54;;;;;;;3.08;2.65;;;17.50;99.90;;;;;;5067320;28;20041;-74
2021/08/04 03:10:20;;;;;;;3.83;3.00;;;17.50;99.90;;;;;;5053829;28;20505;-74
2021/08/04 03:12:45;;;;;;;3.08;2.75;;;17.50;99.90;;;;;;5060765;28;20070;-74
2021/08/04 03:15:11;;;;;;;5.07;2.60;;;17.50;99.90;;;;;;5060053;28;20380;-74
2021/08/04 03:17:37;;;;;;;4.18;2.80;;;17.50;99.90;;;;;;5052456;28;20074;-74
2021/08/04 03:20:03;;;;;;;4.30;2.63;;;17.50;99.90;;;;;;5063561;28;20646;-75
2021/08/04 03:22:28;;;;;;;3.78;2.53;;;17.50;99.90;;;;;;5062509;28;20056;-74
2021/08/04 03:24:54;;;;;;;3.80;2.85;;;17.50;99.90;;;;;;5066770;28;20024;-74
2021/08/04 03:27:19;;;;;;;2.90;2.50;;;17.50;99.90;;;;;;5059754;28;20031;-75
2021/08/04 03:29:45;;;;;;;2.50;2.30;;;17.50;99.90;;;;;;5066355;28;20620;-74
2021/08/04 03:32:10;;;;;;;3.10;2.53;;;17.50;99.90;;;;;;5064390;28;20407;-74
2021/08/04 03:34:35;;;;;;;3.13;2.78;;;17.50;99.90;;;;;;5067101;28;20483;-74
2021/08/04 03:37:01;;;;;;;3.38;2.90;;;17.40;99.90;;;;;;5062574;28;20561;-74
2021/08/04 03:39:26;;;;;;;5.10;3.10;;;17.40;99.90;;;;;;5054815;28;20508;-74
2021/08/04 03:41:52;;;;;;;3.78;2.40;;;17.40;99.90;;;;;;5058116;28;20104;-74
2021/08/04 03:44:17;;;;;;;7.65;3.00;;;17.40;99.90;;;;;;5060046;28;20021;-74
2021/08/04 03:46:47;;;;;;;4.32;3.05;;;17.40;99.90;;;;;;5063021;28;20021;-74
2021/08/04 03:49:14;;;;;;;5.78;2.80;;;17.40;99.90;;;;;;5061560;28;20035;-73
2021/08/04 03:51:39;;;;;;;3.63;2.90;;;17.40;99.90;;;;;;5055512;28;20033;-74
2021/08/04 03:54:05;;;;;;;3.10;2.65;;;17.40;99.90;;;;;;5053078;28;20029;-74
2021/08/04 03:56:30;;;;;;;5.50;3.30;;;17.40;99.90;;;;;;5063061;28;20535;-74
2021/08/04 03:59:00;;;;;;;4.20;3.17;;;17.40;99.90;;;;;;5060857;28;20037;-74
2021/08/04 04:01:26;;;;;;;3.38;2.60;;;17.40;99.90;;;;;;5061799;28;20035;-74
2021/08/04 04:03:51;;;;;;;5.43;3.08;;;17.40;99.90;;;;;;5058563;28;20029;-74
2021/08/04 04:06:17;;;;;;;3.28;2.50;;;17.30;99.90;;;;;;5065606;28;20379;-75
2021/08/04 04:08:43;;;;;;;5.70;2.80;;;17.30;99.90;;;;;;5059172;28;20039;-74
2021/08/04 04:11:09;;;;;;;4.82;2.75;;;17.30;99.90;;;;;;5051780;28;20079;-74
2021/08/04 04:13:35;;;;;;;4.13;2.83;;;17.40;99.90;;;;;;5052944;28;20029;-74
2021/08/04 04:16:00;;;;;;;3.53;3.13;;;17.40;99.90;;;;;;5056449;28;20120;-73
2021/08/04 04:18:29;;;;;;;5.03;2.75;;;17.40;99.90;;;;;;5059220;28;20493;-74
2021/08/04 04:20:54;;;;;;;3.22;2.60;;;17.40;99.90;;;;;;5058943;28;20040;-74
2021/08/04 04:23:20;;;;;;;5.78;2.97;;;17.40;99.90;;;;;;5063978;28;20016;-74
2021/08/04 04:25:45;;;;;;;5.10;2.22;;;17.40;99.90;;;;;;5065081;28;20012;-74
2021/08/04 04:28:11;;;;;;;3.50;2.85;;;17.40;99.90;;;;;;5055796;28;20563;-74
2021/08/04 04:30:36;;;;;;;3.15;2.55;;;17.40;99.90;;;;;;5054000;28;20028;-74
2021/08/04 04:33:02;;;;;;;4.35;2.70;;;17.30;99.90;;;;;;5055976;28;20435;-74
2021/08/04 04:35:28;;;;;;;4.00;2.90;;;17.30;99.90;;;;;;5056851;28;20044;-74
2021/08/04 04:37:53;;;;;;;3.75;2.80;;;17.30;99.90;;;;;;5064781;28;20117;-74
2021/08/04 04:40:19;;;;;;;3.47;2.75;;;17.30;99.90;;;;;;5057378;28;20040;-75
2021/08/04 04:42:44;;;;;;;4.45;2.70;;;17.30;99.90;;;;;;5054437;28;20025;-74
2021/08/04 04:45:10;;;;;;;4.30;3.08;;;17.30;99.90;;;;;;5062493;28;20044;-74
2021/08/04 04:47:36;;;;;;;3.78;3.20;;;17.40;99.90;;;;;;5059770;28;20100;-74
2021/08/04 04:50:02;;;;;;;6.30;2.80;;;17.40;99.90;;;;;;5055793;28;20082;-74
2021/08/04 04:52:28;;;;;;;5.57;2.88;;;17.30;99.90;;;;;;5063632;28;20056;-74
2021/08/04 04:54:53;;;;;;;5.60;3.13;;;17.40;99.90;;;;;;5066998;28;20559;-74
2021/08/04 04:57:19;;;;;;;3.95;2.88;;;17.40;99.90;;;;;;5060422;28;20043;-74
2021/08/04 04:59:44;;;;;;;6.45;3.35;;;17.50;99.90;;;;;;5059634;28;20029;-74
2021/08/04 05:02:10;;;;;;;4.72;2.85;;;17.50;99.90;;;;;;5055500;28;20105;-74
2021/08/04 05:04:35;;;;;;;4.35;2.95;;;17.40;99.90;;;;;;5063809;28;20024;-74
2021/08/04 05:07:01;;;;;;;4.00;3.30;;;17.50;99.90;;;;;;5053892;28;20060;-74
2021/08/04 05:09:26;;;;;;;7.40;3.83;;;17.40;99.90;;;;;;5059481;28;20394;-74
2021/08/04 05:11:52;;;;;;;10.10;3.20;;;17.50;99.90;;;;;;5050659;28;20025;-74
2021/08/04 05:14:17;;;;;;;7.22;3.65;;;17.50;99.90;;;;;;5059903;28;20110;-74
2021/08/04 05:16:43;;;;;;;5.50;3.97;;;17.50;99.90;;;;;;5058667;28;20048;-73
2021/08/04 05:19:08;;;;;;;4.95;3.65;;;17.60;99.90;;;;;;5057838;28;20025;-74
2021/08/04 05:21:34;;;;;;;7.32;3.78;;;17.60;99.90;;;;;;5069090;28;20033;-74
2021/08/04 05:23:59;;;;;;;7.47;3.45;;;17.60;99.90;;;;;;5059348;28;20030;-74
2021/08/04 05:26:25;;;;;;;5.25;3.65;;;17.60;99.90;;;;;;5055482;28;20025;-74
2021/08/04 05:28:51;;;;;;;7.93;3.65;;;17.70;99.90;;;;;;5060774;28;20033;-74
2021/08/04 05:31:17;;;;;;;4.70;3.70;;;17.70;99.90;;;;;;5064433;28;20066;-74
2021/08/04 05:33:42;;;;;;;5.50;3.80;;;17.70;99.90;;;;;;5068502;28;20418;-74
2021/08/04 05:36:14;;;;;;;6.95;4.15;;;17.80;99.90;;;;;;5070316;28;20728;-74
2021/08/04 05:38:40;;;;;;;6.78;3.78;;;17.90;99.90;;;;;;5068468;28;20037;-74
2021/08/04 05:41:05;;;;;;;9.23;4.25;;;17.90;99.90;;;;;;5064758;28;20021;-78
2021/08/04 05:43:31;;;;;;;4.75;3.78;;;17.90;99.90;;;;;;5056055;28;20025;-78
2021/08/04 05:45:57;;;;;;;10.05;4.30;;;18.00;99.90;;;;;;5057835;28;20115;-78
2021/08/04 05:48:22;;;;;;;5.45;4.10;;;18.00;99.90;;;;;;5068481;28;20112;-75
2021/08/04 05:50:48;;;;;;;8.25;4.40;;;18.00;99.90;;;;;;5064922;28;20141;-74
2021/08/04 05:53:14;;;;;;;8.45;4.30;;;18.10;99.90;;;;;;5070683;28;20066;-74
2021/08/04 05:55:39;;;;;;;6.75;4.43;;;18.10;99.90;;;;;;5061996;28;20496;-74
2021/08/04 05:58:05;;;;;;;6.43;4.80;;;18.10;99.90;;;;;;5065058;28;20475;-74
2021/08/04 06:00:31;;;;;;;9.57;4.28;;;18.20;99.90;;;;;;5057351;28;20032;-74
2021/08/04 06:02:56;;;;;;;5.65;4.15;;;18.20;99.90;;;;;;5068494;28;20744;-74
2021/08/04 06:05:22;;;;;;;7.28;4.40;;;18.30;99.90;;;;;;5058923;28;20025;-73
2021/08/04 06:07:47;;;;;;;6.75;4.28;;;18.30;99.90;;;;;;5063071;28;20128;-73
2021/08/04 06:10:13;;;;;;;7.05;4.15;;;18.40;99.90;;;;;;5068167;28;20048;-72
2021/08/04 06:12:39;;;;;;;6.85;4.30;;;18.40;99.90;;;;;;5061751;28;20056;-73
2021/08/04 06:15:05;;;;;;;6.65;3.80;;;18.40;99.90;;;;;;5062137;28;20085;-73
2021/08/04 06:17:30;;;;;;;5.38;4.00;;;18.50;99.90;;;;;;5060135;28;20243;-73
2021/08/04 06:19:56;;;;;;;7.47;4.32;;;18.50;99.90;;;;;;5061768;28;20025;-78
2021/08/04 06:22:21;;;;;;;5.03;3.97;;;18.40;99.90;;;;;;5064797;28;20021;-73
2021/08/04 06:24:47;;;;;;;7.18;4.03;;;18.50;99.90;;;;;;5054747;28;20120;-72
2021/08/04 06:27:13;;;;;;;15.63;4.32;;;18.50;99.90;;;;;;5057301;28;20066;-72
2021/08/04 06:29:39;;;;;;;7.68;4.05;;;18.50;99.90;;;;;;5058036;28;20618;-72
2021/08/04 06:32:04;;;;;;;5.88;3.70;;;18.50;99.90;;;;;;5069349;28;20108;-72
2021/08/04 06:34:30;;;;;;;5.53;3.33;;;18.60;99.90;;;;;;5067419;28;20056;-72
2021/08/04 06:37:17;;;;;;;5.82;3.90;;;18.50;99.90;;;;;;5067100;28;20086;-71
2021/08/04 06:39:42;;;;;;;4.53;3.67;;;18.60;99.90;;;;;;5055257;28;20033;-72
2021/08/04 06:42:08;;;;;;;3.63;3.28;;;18.70;99.90;;;;;;5060064;28;20087;-72
2021/08/04 06:44:33;;;;;;;4.80;3.78;;;18.70;99.90;;;;;;5069215;28;20021;-72
2021/08/04 06:46:59;;;;;;;5.03;3.55;;;18.70;99.90;;;;;;5067670;28;20035;-72
2021/08/04 06:49:25;;;;;;;4.00;3.17;;;18.80;99.90;;;;;;5069772;28;20070;-72
2021/08/04 06:51:51;;;;;;;3.90;3.10;;;18.90;99.90;;;;;;5061347;28;20060;-72
2021/08/04 06:54:16;;;;;;;6.35;3.67;;;19.00;99.90;;;;;;5060147;28;20300;-73
2021/08/04 06:56:42;;;;;;;6.75;3.50;;;19.10;99.90;;;;;;5069362;28;20356;-72
2021/08/04 06:59:08;;;;;;;7.28;3.08;;;19.30;99.90;;;;;;5069464;28;20025;-72
2021/08/04 07:01:33;;;;;;;4.80;2.70;;;19.40;99.90;;;;;;5061143;28;20039;-72
2021/08/04 07:03:59;;;;;;;4.90;2.65;;;19.50;99.90;;;;;;5061294;28;20476;-71
2021/08/04 07:06:24;;;;;;;4.28;2.97;;;19.70;99.90;;;;;;5069019;28;20044;-72
2021/08/04 07:08:50;;;;;;;4.22;3.15;;;19.80;99.90;;;;;;5067076;28;20502;-72
2021/08/04 07:11:16;;;;;;;3.55;2.90;;;19.90;99.90;;;;;;5069027;28;20043;-72
2021/08/04 07:13:42;;;;;;;4.07;2.70;;;20.00;99.90;;;;;;5056289;28;20035;-72
2021/08/04 07:16:08;;;;;;;5.55;2.28;;;20.00;99.90;;;;;;5058759;28;20036;-72
2021/08/04 07:18:33;;;;;;;6.15;3.10;;;20.00;99.90;;;;;;5068805;28;20111;-72
2021/08/04 07:20:59;;;;;;;3.75;3.28;;;20.10;99.90;;;;;;5065365;28;20530;-71
2021/08/04 07:23:24;;;;;;;4.15;2.50;;;20.10;99.90;;;;;;5069074;28;20233;-72
2021/08/04 07:25:50;;;;;;;2.55;2.30;;;20.20;99.90;;;;;;5063729;28;20483;-72
2021/08/04 07:28:17;;;;;;;4.55;2.80;;;20.30;99.60;;;;;;5068722;28;20029;-72
2021/08/04 07:30:42;;;;;;;2.72;2.38;;;20.40;99.70;;;;;;5068724;28;20390;-72
2021/08/04 07:33:08;;;;;;;4.72;3.28;;;20.40;98.70;;;;;;5059505;28;20043;-72
2021/08/04 07:35:33;;;;;;;4.60;2.88;;;20.40;99.10;;;;;;5064996;28;20040;-72
2021/08/04 07:37:59;;;;;;;3.45;3.05;;;20.40;99.80;;;;;;5068189;28;20028;-72
2021/08/04 07:40:24;;;;;;;3.25;2.95;;;20.30;97.80;;;;;;5068763;28;20430;-72
2021/08/04 07:42:50;;;;;;;4.78;3.40;;;20.30;97.90;;;;;;5064358;28;20032;-72
2021/08/04 07:45:18;;;;;;;11.30;2.85;;;20.30;97.50;;;;;;5064860;28;20044;-72
2021/08/04 07:47:43;;;;;;;4.97;3.00;;;20.20;96.70;;;;;;5063706;28;20028;-72
2021/08/04 07:50:09;;;;;;;6.65;3.13;;;20.20;97.30;;;;;;5068404;28;20039;-72
2021/08/04 07:52:35;;;;;;;4.55;3.20;;;20.20;97.50;;;;;;5065841;28;20033;-71
2021/08/04 07:55:03;;;;;;;4.38;2.90;;;20.20;97.70;;;;;;5068161;28;20713;-72
2021/08/04 07:57:29;;;;;;;4.60;2.58;;;20.10;98.20;;;;;;5064618;28;20111;-72
2021/08/04 07:59:54;;;;;;;4.20;2.83;;;20.10;97.80;;;;;;5059621;28;20136;-72
2021/08/04 08:02:19;;;;;;;7.53;3.00;;;20.10;99.90;;;;;;5063080;28;20383;-72
2021/08/04 08:04:45;;;;;;;4.65;3.03;;;20.20;99.40;;;;;;5066181;28;20028;-72
2021/08/04 08:07:10;;;;;;;3.72;2.72;;;20.20;99.30;;;;;;5068179;28;20127;-71
2021/08/04 08:09:36;;;;;;;5.15;3.25;;;20.30;98.60;;;;;;5058705;28;20031;-72
2021/08/04 08:12:02;;;;;;;3.60;2.80;;;20.30;98.60;;;;;;5067760;28;20175;-72
2021/08/04 08:14:29;;;;;;;5.20;3.35;;;20.40;98.30;;;;;;5066579;28;20039;-72
2021/08/04 08:16:55;;;;;;;8.50;3.72;;;20.40;99.40;;;;;;5064475;28;20059;-72
2021/08/04 08:19:21;;;;;;;7.68;3.22;;;20.40;97.40;;;;;;5060547;28;20051;-71
2021/08/04 08:21:47;;;;;;;10.60;3.38;;;20.40;98.60;;;;;;5055903;28;20089;-72
2021/08/04 08:24:12;;;;;;;4.30;3.40;;;20.40;99.90;;;;;;5068062;28;20395;-71
2021/08/04 08:26:39;;;;;;;9.65;3.00;;;20.50;99.40;;;;;;5067116;28;20478;-72
2021/08/04 08:29:05;;;;;;;4.95;3.08;;;20.50;99.90;;;;;;5067964;28;20086;-72
2021/08/04 08:31:35;;;;;;;5.00;2.70;;;20.50;99.90;;;;;;5067924;28;20056;-72
2021/08/04 08:34:02;;;;;;;4.15;2.90;;;20.60;99.00;;;;;;5066757;28;20038;-72
2021/08/04 08:36:29;;;;;;;4.20;3.13;;;20.60;97.10;;;;;;5064247;28;20025;-72
2021/08/04 08:38:56;;;;;;;3.60;2.75;;;20.70;96.70;;;;;;5068102;28;20036;-72
2021/08/04 08:41:21;;;;;;;4.22;3.58;;;20.70;97.30;;;;;;5066442;28;20471;-72
2021/08/04 08:43:47;;;;;;;3.70;2.80;;;20.80;95.50;;;;;;5057920;28;20591;-72
2021/08/04 08:46:14;;;;;;;4.55;3.08;;;20.80;96.20;;;;;;5065725;28;20029;-72
2021/08/04 08:48:44;;;;;;;7.57;3.25;;;20.80;95.60;;;;;;5056510;28;20035;-72
2021/08/04 08:51:10;;;;;;;6.53;3.10;;;20.90;96.50;;;;;;5066055;28;20490;-72
2021/08/04 08:53:38;;;;;;;5.88;3.00;;;21.00;97.40;;;;;;5060236;28;20479;-72
2021/08/04 08:56:06;;;;;;;5.63;2.85;;;21.10;96.40;;;;;;5064248;28;20036;-72
2021/08/04 08:58:32;;;;;;;5.88;2.75;;;21.10;96.40;;;;;;5059247;28;20025;-72
2021/08/04 09:00:57;;;;;;;4.10;2.97;;;21.20;95.50;;;;;;5070367;28;20035;-72
2021/08/04 09:03:23;;;;;;;4.38;3.30;;;21.30;95.30;;;;;;5071822;28;20499;-72
2021/08/04 09:05:48;;;;;;;4.60;2.30;;;21.40;95.90;;;;;;5070835;28;20025;-72
2021/08/04 09:08:41;;;;;;;4.38;2.40;;;21.50;94.40;;;;;;5061468;28;20059;-72
2021/08/04 09:11:12;;;;;;;3.17;2.20;;;21.50;93.40;;;;;;5059865;28;20044;-72
2021/08/04 09:13:38;;;;;;;6.05;2.35;;;21.60;92.20;;;;;;5071293;28;20045;-72
2021/08/04 09:16:09;;;;;;;3.95;2.50;;;21.70;92.80;;;;;;5071290;28;20782;-72
2021/08/04 09:18:51;;;;;;;3.60;2.20;;;21.80;92.50;;;;;;5071231;28;20032;-72
2021/08/04 09:21:17;;;;;;;2.50;2.30;;;21.80;91.70;;;;;;5056775;28;20116;-73
2021/08/04 09:23:46;;;;;;;2.65;2.40;;;21.80;91.10;;;;;;5057547;28;20029;-72
2021/08/04 09:26:14;;;;;;;2.58;2.00;;;21.90;90.70;;;;;;5064465;28;20028;-72
2021/08/04 09:29:06;;;;;;;4.32;2.15;;;22.00;89.60;;;;;;5070405;28;20039;-72
2021/08/04 09:31:40;;;;;;;2.47;2.08;;;22.00;91.80;;;;;;5060347;28;20025;-72
2021/08/04 09:34:24;;;;;;;3.13;2.10;;;22.10;89.00;;;;;;5070864;28;20081;-72
2021/08/04 09:36:58;;;;;;;2.97;1.95;;;22.10;88.50;;;;;;5070492;28;20054;-72
2021/08/04 09:39:24;;;;;;;2.30;1.92;;;22.00;90.00;;;;;;5070962;28;20029;-72
2021/08/04 09:41:49;;;;;;;1.90;1.70;;;22.10;88.70;;;;;;5056523;28;20095;-73
2021/08/04 09:44:15;;;;;;;2.00;1.80;;;22.30;88.00;;;;;;5069519;28;20422;-72
2021/08/04 09:47:04;;;;;;;2.38;1.98;;;22.40;82.50;;;;;;5059051;28;20428;-72
2021/08/04 09:49:30;;;;;;;2.15;1.80;;;22.40;81.80;;;;;;5069881;28;20426;-73
2021/08/04 09:52:08;;;;;;;2.15;1.90;;;22.50;81.50;;;;;;5065321;28;20038;-72
2021/08/04 09:54:41;;;;;;;2.05;1.85;;;22.50;84.00;;;;;;5062861;28;20191;-72
2021/08/04 09:57:07;;;;;;;2.10;1.90;;;22.50;84.50;;;;;;5069739;28;20035;-72
2021/08/04 09:59:33;;;;;;;3.28;1.95;;;22.60;85.10;;;;;;5066534;28;20549;-72
2021/08/04 10:01:59;;;;;;;2.00;1.80;;;22.60;83.20;;;;;;5070529;28;20024;-72
2021/08/04 10:04:26;;;;;;;6.28;1.80;;;22.70;82.10;;;;;;5068357;28;20020;-72
2021/08/04 10:07:04;;;;;;;2.50;1.73;;;22.80;81.30;;;;;;5068936;28;20048;-71
2021/08/04 10:09:29;;;;;;;2.17;1.80;;;22.90;81.10;;;;;;5069917;28;20039;-72
2021/08/04 10:11:55;;;;;;;2.75;1.75;;;22.90;81.30;;;;;;5065322;28;20024;-72
2021/08/04 10:14:22;;;;;;;2.40;1.88;;;22.90;80.10;;;;;;5059888;28;20383;-72
2021/08/04 10:16:50;;;;;;;1.85;1.75;;;22.90;79.90;;;;;;5063970;28;20227;-72
2021/08/04 10:19:17;;;;;;;3.10;2.13;;;22.90;80.70;;;;;;5069902;28;20113;-72
2021/08/04 10:21:51;;;;;;;4.43;1.73;;;22.90;83.00;;;;;;5068976;28;20040;-72
2021/08/04 10:24:17;;;;;;;2.28;2.00;;;22.90;79.50;;;;;;5053013;28;20693;-73
2021/08/04 10:26:43;;;;;;;3.15;1.90;;;23.00;78.60;;;;;;5065242;28;20086;-72
2021/08/04 10:29:10;;;;;;;1.92;1.77;;;23.00;82.30;;;;;;5070145;28;20387;-72
2021/08/04 10:31:39;;;;;;;2.58;1.90;;;22.90;78.50;;;;;;5064720;28;20025;-72
2021/08/04 10:34:06;;;;;;;1.90;1.77;;;22.80;78.60;;;;;;5049354;28;20020;-72
2021/08/04 10:36:34;;;;;;;1.95;1.70;;;22.80;80.70;;;;;;5056633;28;20036;-72
2021/08/04 10:39:07;;;;;;;2.00;1.80;;;22.60;78.90;;;;;;5068667;28;20029;-72
2021/08/04 10:41:34;;;;;;;1.92;1.70;;;22.50;81.20;;;;;;5067119;28;20024;-72
2021/08/04 10:44:01;;;;;;;2.35;1.63;;;22.40;81.10;;;;;;5068754;28;20029;-72
2021/08/04 10:46:30;;;;;;;2.67;2.47;;;22.30;81.30;;;;;;5059777;28;20028;-72
2021/08/04 10:49:11;;;;;;;1.75;1.63;;;22.20;81.10;;;;;;5068687;28;20029;-72
2021/08/04 10:51:41;;;;;;;2.45;2.13;;;22.10;82.40;;;;;;5069338;28;20096;-72
2021/08/04 10:54:20;;;;;;;2.58;2.00;;;22.00;82.70;;;;;;5066296;28;20055;-72
2021/08/04 10:56:46;;;;;;;3.22;1.80;;;21.90;82.00;;;;;;5064683;28;20465;-71
2021/08/04 10:59:11;;;;;;;4.50;1.83;;;21.90;82.60;;;;;;5063472;28;20048;-72
2021/08/04 11:01:45;;;;;;;3.97;2.63;;;21.80;83.10;;;;;;5069245;28;20025;-72
2021/08/04 11:04:12;;;;;;;2.53;2.10;;;21.80;84.40;;;;;;5064771;28;20024;-72
2021/08/04 11:07:09;;;;;;;2.42;2.00;;;21.90;87.20;;;;;;5059741;28;20119;-72
2021/08/04 11:09:39;;;;;;;3.60;1.60;;;22.20;82.80;;;;;;5057984;28;20494;-72
2021/08/04 11:12:10;;;;;;;3.03;1.77;;;22.60;82.30;;;;;;5068740;28;20028;-72
2021/08/04 11:14:44;;;;;;;2.10;1.90;;;22.90;80.10;;;;;;5062378;28;20402;-72
2021/08/04 11:17:12;;;;;;;1.80;1.70;;;23.10;77.70;;;;;;5068297;28;20487;-72
2021/08/04 11:19:56;;;;;;;1.88;1.50;;;23.50;77.60;;;;;;5069053;28;20036;-73
2021/08/04 11:22:26;;;;;;;3.65;1.70;;;23.70;72.60;;;;;;5063712;28;20025;-73
2021/08/04 11:24:57;;;;;;;3.05;1.98;;;23.80;73.50;;;;;;5054035;28;20432;-72
2021/08/04 11:27:26;;;;;;;1.67;1.55;;;23.70;75.10;;;;;;5068567;28;20066;-72
2021/08/04 11:29:55;;;;;;;1.85;1.70;;;23.60;74.00;;;;;;5068321;28;20032;-73
2021/08/04 11:32:23;;;;;;;2.42;1.98;;;23.80;73.40;;;;;;5062779;28;20384;-73
2021/08/04 11:34:48;;;;;;;2.88;1.40;;;23.90;74.20;;;;;;5063431;28;20387;-72
2021/08/04 11:37:25;;;;;;;5.07;1.80;;;24.10;74.30;;;;;;5067117;28;20024;-73
2021/08/04 11:40:00;;;;;;;2.05;1.85;;;24.10;72.20;;;;;;5067590;28;20056;-73
2021/08/04 11:42:27;;;;;;;1.60;1.50;;;24.10;73.50;;;;;;5057170;28;20076;-72
2021/08/04 11:44:53;;;;;;;1.63;1.42;;;24.20;72.80;;;;;;5055265;28;20028;-73
2021/08/04 11:47:20;;;;;;;2.00;1.80;;;24.30;70.20;;;;;;5063010;28;20017;-73
2021/08/04 11:49:49;;;;;;;1.88;1.52;;;24.40;71.10;;;;;;5059312;28;20600;-73
2021/08/04 11:52:24;;;;;;;2.75;1.40;;;24.40;70.00;;;;;;5061108;28;20044;-72
2021/08/04 11:54:53;;;;;;;1.80;1.70;;;24.30;67.20;;;;;;5060117;28;20055;-73
2021/08/04 11:57:48;;;;;;;2.05;1.80;;;24.40;71.80;;;;;;5061347;28;20042;-73
2021/08/04 12:00:17;;;;;;;2.58;1.50;;;25.30;67.40;;;;;;5060709;28;20490;-73
2021/08/04 12:02:43;;;;;;;3.15;1.50;;;26.30;66.70;;;;;;5062383;28;20052;-73
2021/08/04 12:05:11;;;;;;;1.50;1.30;;;27.10;60.60;;;;;;5058997;28;20491;-72
2021/08/04 12:07:38;;;;;;;2.38;1.80;;;28.00;58.00;;;;;;5062675;28;20052;-73
2021/08/04 12:10:09;;;;;;;1.42;1.17;;;28.40;56.00;;;;;;5064090;28;20692;-73
2021/08/04 12:12:40;;;;;;;2.88;1.40;;;28.80;54.70;;;;;;5067898;28;20075;-73
2021/08/04 12:15:20;;;;;;;1.65;1.42;;;29.40;55.10;;;;;;5058818;28;20032;-73
2021/08/04 12:17:46;;;;;;;1.27;1.13;;;30.10;53.90;;;;;;5056522;28;20032;-73
2021/08/04 12:20:20;;;;;;;4.18;1.45;;;30.40;51.20;;;;;;5062166;28;20020;-73
2021/08/04 12:23:00;;;;;;;1.55;1.38;;;30.40;50.80;;;;;;5063086;28;20032;-73
2021/08/04 12:25:27;;;;;;;1.40;1.30;;;31.10;50.40;;;;;;5063021;28;20773;-73
2021/08/04 12:27:54;;;;;;;1.45;1.27;;;31.00;48.40;;;;;;5059990;28;20036;-73
2021/08/04 12:30:31;;;;;;;3.53;1.55;;;31.30;47.90;;;;;;5056020;28;20112;-73
2021/08/04 12:33:21;;;;;;;3.17;1.60;;;30.90;47.00;;;;;;5062746;28;20029;-75
2021/08/04 12:38:32;;;;;;;3.10;1.58;;;31.60;46.20;;;;;;5059760;28;19916;-73
2021/08/04 12:40:58;;;;;;;1.48;1.30;;;32.20;46.60;;;;;;5058701;28;20025;-73
2021/08/04 12:43:36;;;;;;;1.25;1.17;;;32.70;45.10;;;;;;5056180;28;20075;-72
2021/08/04 12:46:03;;;;;;;2.80;1.40;;;32.90;46.30;;;;;;5059736;28;20088;-72
2021/08/04 12:48:45;;;;;;;2.03;1.60;;;32.50;44.30;;;;;;5057826;28;20052;-72
2021/08/04 12:51:13;;;;;;;3.63;1.40;;;32.50;44.40;;;;;;5054909;28;20114;-71
2021/08/04 12:53:40;;;;;;;1.42;1.30;;;33.80;44.00;;;;;;5056537;28;20044;-76
2021/08/04 12:56:06;;;;;;;1.88;1.27;;;34.80;43.00;;;;;;5054381;28;20035;-76